Apostolis T. — SVA2334 — position and weather

sailwx.info

Track history (hours):
 
Tides and Currents Weather Stations Pressure Air Temp Water Temp Dewpoint Dewpoint Depression Visibility Wind Speed Wind Dir Waves Ship Positions

Apostolis T.

Last reported at 2018-Feb-20 09:16 UTC. Time now 2018-Feb-21 07:25 UTC.
Position N 38°11' E 024°09'.

Length 76 m; draft 2.4 m.

Type: Ship. MMSI: 239471800.

Date/timePositionNaut miles runAvg speedWind from/ knotsBaromVisibWave heightAir tempDewpointWater temp
2018-Feb-20 09:16N 38°11' E 024°09'2 1.6
2018-Feb-20 08:00N 38°11' E 024°07'5 3.6
2018-Feb-20 06:44N 38°11' E 024°12'3 9.9
2018-Feb-20 06:29N 38°11' E 024°09'2 1.4
2018-Feb-20 05:02N 38°11' E 024°07'010.5
2018-Feb-20 04:59N 38°11' E 024°07'2 0.2
2018-Feb-19 19:04N 38°11' E 024°09'110.9
2018-Feb-19 18:59N 38°11' E 024°08'1 1.7
2018-Feb-19 18:16N 38°11' E 024°07'5 5.0
2018-Feb-19 17:22N 38°11' E 024°12'410.8
2018-Feb-19 17:00N 38°11' E 024°07'1 0.8
2018-Feb-19 16:17N 38°11' E 024°07'4 4.0
2018-Feb-19 15:09N 38°11' E 024°12'210.8
2018-Feb-19 14:55N 38°11' E 024°09'2 2.5
2018-Feb-19 14:07N 38°11' E 024°07'211.7
2018-Feb-19 13:58N 38°11' E 024°09'3 3.4
2018-Feb-19 13:12N 38°11' E 024°12'210.7
2018-Feb-19 12:58N 38°11' E 024°09'1 1.4
2018-Feb-19 11:58N 38°11' E 024°07'4 8.6
2018-Feb-19 11:30N 38°11' E 024°12'0 0.0
2018-Feb-19 11:00N 38°11' E 024°12'0 0.0
2018-Feb-19 10:30N 38°11' E 024°12'0 0.0
2018-Feb-19 10:00N 38°11' E 024°12'0 0.0
2018-Feb-19 09:30N 38°11' E 024°12'2 4.7
2018-Feb-19 08:59N 38°11' E 024°09'2 2.1
2018-Feb-19 07:59N 38°11' E 024°07'4 4.3
2018-Feb-19 06:56N 38°11' E 024°12'4 2.6
2018-Feb-19 05:29N 38°11' E 024°07'4 0.3
2018-Feb-18 17:35N 38°11' E 024°12'3 9.7
2018-Feb-18 17:19N 38°11' E 024°09'2 2.8
2018-Feb-18 16:31N 38°11' E 024°06'010.5
2018-Feb-18 16:30N 38°11' E 024°07'5 4.3
2018-Feb-18 15:26N 38°11' E 024°12'4 9.7
2018-Feb-18 14:59N 38°11' E 024°07'0 0.2
2018-Feb-18 14:14N 38°11' E 024°07'410.4
2018-Feb-18 13:48N 38°11' E 024°12'0 0.0
2018-Feb-18 13:13N 38°11' E 024°12'3 9.9
2018-Feb-18 12:58N 38°11' E 024°09'2 1.6
2018-Feb-18 11:59N 38°11' E 024°07'4 6.2
2018-Feb-18 11:19N 38°11' E 024°12'0 0.0
2018-Feb-17 11:45N 38°11' E 024°12'2 9.7
2018-Feb-17 11:30N 38°11' E 024°09'2 1.5
2018-Feb-17 10:10N 38°11' E 024°07'4 5.2
2018-Feb-17 09:18N 38°11' E 024°12'310.0
2018-Feb-17 08:57N 38°11' E 024°08'1 0.8
2018-Feb-17 07:46N 38°11' E 024°07'4 9.7
2018-Feb-17 07:18N 38°11' E 024°12'2 4.4
2018-Feb-17 06:46N 38°11' E 024°09'0 0.0
2018-Feb-17 05:08N 38°11' E 024°09'2 8.1
2018-Feb-17 04:50N 38°11' E 024°12'0 0.0
2018-Feb-16 18:05N 38°11' E 024°12'3 9.9
2018-Feb-16 17:50N 38°11' E 024°09'3 1.5
2018-Feb-16 16:07N 38°11' E 024°12'0 0.2
2018-Feb-16 15:49N 38°11' E 024°12'3 9.8
2018-Feb-16 15:29N 38°11' E 024°08'1 0.4
2018-Feb-16 14:11N 38°11' E 024°08'410.0
2018-Feb-16 13:50N 38°11' E 024°12'0 0.3
2018-Feb-16 13:30N 38°11' E 024°12'4 3.1
2018-Feb-16 12:02N 38°11' E 024°07'010.3
2018-Feb-16 11:59N 38°11' E 024°07'4 0.1
2018-Feb-15 06:49N 38°11' E 024°12'0 0.0
2018-Feb-14 15:14N 38°11' E 024°12'210.4
2018-Feb-14 15:00N 38°11' E 024°09'2 2.1
2018-Feb-14 14:04N 38°11' E 024°07'110.1
2018-Feb-14 14:00N 38°10' E 024°08'4 5.2
2018-Feb-14 13:16N 38°11' E 024°12'3 9.8
2018-Feb-14 13:00N 38°11' E 024°09'2 2.2
2018-Feb-14 12:05N 38°11' E 024°07'1 9.4
2018-Feb-14 12:01N 38°10' E 024°08'4 0.1
2018-Feb-12 11:09N 38°11' E 024°12'0 0.7
2018-Feb-12 11:00N 38°11' E 024°12'0 0.0
2018-Feb-12 09:29N 38°11' E 024°12'4 3.0
2018-Feb-12 07:59N 38°11' E 024°07'4 3.6
2018-Feb-12 06:45N 38°11' E 024°12'2 9.8
2018-Feb-12 06:29N 38°11' E 024°09'2 1.4
2018-Feb-12 05:03N 38°11' E 024°07'110.4
2018-Feb-12 05:00N 38°11' E 024°07'4 0.4
2018-Feb-11 17:38N 38°11' E 024°12'210.3
2018-Feb-11 17:27N 38°11' E 024°10'2 2.2
2018-Feb-11 16:28N 38°10' E 024°07'4 3.5
2018-Feb-11 15:22N 38°11' E 024°12'410.0
2018-Feb-11 15:00N 38°10' E 024°08'1 1.5
2018-Feb-11 14:17N 38°11' E 024°06'5 9.5
2018-Feb-11 13:47N 38°11' E 024°12'0 0.1
2018-Feb-11 13:20N 38°11' E 024°12'4 9.3
2018-Feb-11 12:55N 38°10' E 024°08'1 1.2
2018-Feb-11 12:06N 38°11' E 024°07'1 9.4
2018-Feb-11 11:59N 38°10' E 024°08'4 4.2
2018-Feb-11 11:10N 38°11' E 024°12'0 0.0
2018-Feb-10 11:13N 38°11' E 024°12'2 9.6
2018-Feb-10 10:58N 38°11' E 024°09'  
Track history (hours):
 
Tides and Currents Weather Stations Pressure Air Temp Water Temp Dewpoint Dewpoint Depression Visibility Wind Speed Wind Dir Waves Ship Positions

Apostolis T.

Last reported at 2018-Feb-20 09:16 UTC. Time now 2018-Feb-21 07:25 UTC.
Position N 38°11' E 024°09'.

Length 76 m; draft 2.4 m.

Type: Ship. MMSI: 239471800.

Date/timePositionNaut miles runAvg speedWind from/ knotsBaromVisibWave heightAir tempDewpointWater temp
2018-Feb-20 09:16N 38°11' E 024°09'2 1.6
2018-Feb-20 08:00N 38°11' E 024°07'5 3.6
2018-Feb-20 06:44N 38°11' E 024°12'3 9.9
2018-Feb-20 06:29N 38°11' E 024°09'2 1.4
2018-Feb-20 05:02N 38°11' E 024°07'010.5
2018-Feb-20 04:59N 38°11' E 024°07'2 0.2
2018-Feb-19 19:04N 38°11' E 024°09'110.9
2018-Feb-19 18:59N 38°11' E 024°08'1 1.7
2018-Feb-19 18:16N 38°11' E 024°07'5 5.0
2018-Feb-19 17:22N 38°11' E 024°12'410.8
2018-Feb-19 17:00N 38°11' E 024°07'1 0.8
2018-Feb-19 16:17N 38°11' E 024°07'4 4.0
2018-Feb-19 15:09N 38°11' E 024°12'210.8
2018-Feb-19 14:55N 38°11' E 024°09'2 2.5
2018-Feb-19 14:07N 38°11' E 024°07'211.7
2018-Feb-19 13:58N 38°11' E 024°09'3 3.4
2018-Feb-19 13:12N 38°11' E 024°12'210.7
2018-Feb-19 12:58N 38°11' E 024°09'1 1.4
2018-Feb-19 11:58N 38°11' E 024°07'4 8.6
2018-Feb-19 11:30N 38°11' E 024°12'0 0.0
2018-Feb-19 11:00N 38°11' E 024°12'0 0.0
2018-Feb-19 10:30N 38°11' E 024°12'0 0.0
2018-Feb-19 10:00N 38°11' E 024°12'0 0.0
2018-Feb-19 09:30N 38°11' E 024°12'2 4.7
2018-Feb-19 08:59N 38°11' E 024°09'2 2.1
2018-Feb-19 07:59N 38°11' E 024°07'4 4.3
2018-Feb-19 06:56N 38°11' E 024°12'4 2.6
2018-Feb-19 05:29N 38°11' E 024°07'4 0.3
2018-Feb-18 17:35N 38°11' E 024°12'3 9.7
2018-Feb-18 17:19N 38°11' E 024°09'2 2.8
2018-Feb-18 16:31N 38°11' E 024°06'010.5
2018-Feb-18 16:30N 38°11' E 024°07'5 4.3
2018-Feb-18 15:26N 38°11' E 024°12'4 9.7
2018-Feb-18 14:59N 38°11' E 024°07'0 0.2
2018-Feb-18 14:14N 38°11' E 024°07'410.4
2018-Feb-18 13:48N 38°11' E 024°12'0 0.0
2018-Feb-18 13:13N 38°11' E 024°12'3 9.9
2018-Feb-18 12:58N 38°11' E 024°09'2 1.6
2018-Feb-18 11:59N 38°11' E 024°07'4 6.2
2018-Feb-18 11:19N 38°11' E 024°12'0 0.0
2018-Feb-17 11:45N 38°11' E 024°12'2 9.7
2018-Feb-17 11:30N 38°11' E 024°09'2 1.5
2018-Feb-17 10:10N 38°11' E 024°07'4 5.2
2018-Feb-17 09:18N 38°11' E 024°12'310.0
2018-Feb-17 08:57N 38°11' E 024°08'1 0.8
2018-Feb-17 07:46N 38°11' E 024°07'4 9.7
2018-Feb-17 07:18N 38°11' E 024°12'2 4.4
2018-Feb-17 06:46N 38°11' E 024°09'0 0.0
2018-Feb-17 05:08N 38°11' E 024°09'2 8.1
2018-Feb-17 04:50N 38°11' E 024°12'0 0.0
2018-Feb-16 18:05N 38°11' E 024°12'3 9.9
2018-Feb-16 17:50N 38°11' E 024°09'3 1.5
2018-Feb-16 16:07N 38°11' E 024°12'0 0.2
2018-Feb-16 15:49N 38°11' E 024°12'3 9.8
2018-Feb-16 15:29N 38°11' E 024°08'1 0.4
2018-Feb-16 14:11N 38°11' E 024°08'410.0
2018-Feb-16 13:50N 38°11' E 024°12'0 0.3
2018-Feb-16 13:30N 38°11' E 024°12'4 3.1
2018-Feb-16 12:02N 38°11' E 024°07'010.3
2018-Feb-16 11:59N 38°11' E 024°07'4 0.1
2018-Feb-15 06:49N 38°11' E 024°12'0 0.0
2018-Feb-14 15:14N 38°11' E 024°12'210.4
2018-Feb-14 15:00N 38°11' E 024°09'2 2.1
2018-Feb-14 14:04N 38°11' E 024°07'110.1
2018-Feb-14 14:00N 38°10' E 024°08'4 5.2
2018-Feb-14 13:16N 38°11' E 024°12'3 9.8
2018-Feb-14 13:00N 38°11' E 024°09'2 2.2
2018-Feb-14 12:05N 38°11' E 024°07'1 9.4
2018-Feb-14 12:01N 38°10' E 024°08'4 0.1
2018-Feb-12 11:09N 38°11' E 024°12'0 0.7
2018-Feb-12 11:00N 38°11' E 024°12'0 0.0
2018-Feb-12 09:29N 38°11' E 024°12'4 3.0
2018-Feb-12 07:59N 38°11' E 024°07'4 3.6
2018-Feb-12 06:45N 38°11' E 024°12'2 9.8
2018-Feb-12 06:29N 38°11' E 024°09'2 1.4
2018-Feb-12 05:03N 38°11' E 024°07'110.4
2018-Feb-12 05:00N 38°11' E 024°07'4 0.4
2018-Feb-11 17:38N 38°11' E 024°12'210.3
2018-Feb-11 17:27N 38°11' E 024°10'2 2.2
2018-Feb-11 16:28N 38°10' E 024°07'4 3.5
2018-Feb-11 15:22N 38°11' E 024°12'410.0
2018-Feb-11 15:00N 38°10' E 024°08'1 1.5
2018-Feb-11 14:17N 38°11' E 024°06'5 9.5
2018-Feb-11 13:47N 38°11' E 024°12'0 0.1
2018-Feb-11 13:20N 38°11' E 024°12'4 9.3
2018-Feb-11 12:55N 38°10' E 024°08'1 1.2
2018-Feb-11 12:06N 38°11' E 024°07'1 9.4
2018-Feb-11 11:59N 38°10' E 024°08'4 4.2
2018-Feb-11 11:10N 38°11' E 024°12'0 0.0
2018-Feb-10 11:13N 38°11' E 024°12'2 9.6
2018-Feb-10 10:58N 38°11' E 024°09'  

Dump ship's entire track history